Cleveland, Alabama
Current Conditions -  °F | °C
As of 10:35 PM on Saturday 22 Nov 2014 (Local Time) from KCMD Reporting Station
Overcast Overcast  
Wind Chill: 57°   Ceiling: 2600
Heat Index: 57°   Visibility: 10mi
Dew Point: 44°   Wind: 8mph
Humidity: 61%   Direction: 130°SE
Pressure: 30.11"   Gusts: NA
Location:  33.99°N, 86.58°W
Report Text: KCMD 230435Z AUTO 13007KT 10SM BKN026 OVC034 14/07 A3011 RMK AO2 T01410066
Loading
Personal Weather Stations






























Interactive Weather Map New forecast layout! Learn more

10-Day Weather Forecast

Advertisements
Track Severe Weather on mobile